WetterOnline ( https://www.wetteronline.de )

Wetter aktuell Schmalkalden

Aktuelles Wetter: Meiningen (453m)

6-stündlich | Neueste Meldungen
Ortszeit Temperatur Wetter
So, 05.02. 7:00 -4.7° C bedeckt
So, 05.02. 1:00 -3.9° C wolkenlos
Sa, 04.02. 19:00 -0.5° C wolkig
Sa, 04.02. 13:00 1.5° C bedeckt
Sa, 04.02. 7:00 0.5° C Regen
Sa, 04.02. 1:00 4.3° C bedeckt
Fr, 03.02. 19:00 5.6° C wolkig
Fr, 03.02. 13:00 5.9° C Regen
Ortszeit Temperatur Wetter
So, 05.02. 7:30 -4.4° C bedeckt
So, 05.02. 7:20 -4.4° C bedeckt
So, 05.02. 7:10 -4.6° C bedeckt
So, 05.02. 7:00 -4.7° C bedeckt
So, 05.02. 6:50 -4.7° C bedeckt
So, 05.02. 6:40 -4.9° C bedeckt
So, 05.02. 6:30 -4.8° C bedeckt
So, 05.02. 6:00 -4.9° C bewölkt
So, 05.02. 5:30 -5.4° C wolkig
So, 05.02. 5:00 -5.1° C wolkig
So, 05.02. 4:30 -5.0° C leicht bewölkt
Ortszeit Relative Feuchte Sichtweite
So, 05.02. 7:00 93% 35 km
So, 05.02. 1:00 93% 30 km
Sa, 04.02. 19:00 77% >70 km
Sa, 04.02. 13:00 68% >70 km
Sa, 04.02. 7:00 92% >70 km
Sa, 04.02. 1:00 66% 35 km
Fr, 03.02. 19:00 69% 30 km
Fr, 03.02. 13:00 88% 19 km
Ortszeit Relative Feuchte Sichtweite
So, 05.02. 7:30 93% 45 km
So, 05.02. 7:20 93% -
So, 05.02. 7:10 93% -
So, 05.02. 7:00 93% 35 km
So, 05.02. 6:50 93% -
So, 05.02. 6:40 94% -
So, 05.02. 6:30 93% 40 km
So, 05.02. 6:00 93% 35 km
So, 05.02. 5:30 96% 26 km
So, 05.02. 5:00 95% 30 km
So, 05.02. 4:30 95% 27 km
Ortszeit Niederschlagsmenge Niederschlagsart
So, 05.02. 7:00 0.0 l/m2 in 12 Std. -
So, 05.02. 1:00 0.0 l/m2 in 6 Std. -
Sa, 04.02. 19:00 0.0 l/m2 in 12 Std. -
Sa, 04.02. 13:00 0.0 l/m2 in 6 Std. -
Sa, 04.02. 7:00 1 l/m2 in 12 Std. Schnee, Regen
Sa, 04.02. 1:00 0.0 l/m2 in 6 Std. -
Fr, 03.02. 19:00 2 l/m2 in 12 Std. Regen
Fr, 03.02. 13:00 0.2 l/m2 in 6 Std. Regen
Ortszeit Niederschlagsmenge Niederschlagsart
So, 05.02. 7:30 0.0 l/m2 in 30 Min -
So, 05.02. 7:20 keine Meldung -
So, 05.02. 7:10 keine Meldung -
So, 05.02. 7:00 0.0 l/m2 in 1 Std. -
So, 05.02. 6:50 keine Meldung -
So, 05.02. 6:40 keine Meldung -
So, 05.02. 6:30 0.0 l/m2 in 30 Min -
So, 05.02. 6:00 0.0 l/m2 in 1 Std. -
So, 05.02. 5:30 0.0 l/m2 in 30 Min -
So, 05.02. 5:00 0.0 l/m2 in 1 Std. -
So, 05.02. 4:30 0.0 l/m2 in 30 Min -
Ortszeit Stärke Spitze Richtung
km/h Bft. km/h Grad Sektor
So, 05.02. 7:00 6 1 11 170° S
So, 05.02. 1:00 6 1 6 150° SO
Sa, 04.02. 19:00 4 1 14 40° NO
Sa, 04.02. 13:00 6 1 22 40° NO
Sa, 04.02. 7:00 15 3 50 10° N
Sa, 04.02. 1:00 28 4 59 310° NW
Fr, 03.02. 19:00 25 4 58 300° NW
Fr, 03.02. 13:00 22 4 54 270° W
Ortszeit Stärke Spitze Richtung
km/h Bft. km/h Grad Sektor
So, 05.02. 7:30 6 1 9 180° S
So, 05.02. 7:20 6 1 - 180° S
So, 05.02. 7:10 6 1 - 170° S
So, 05.02. 7:00 6 1 9 170° S
So, 05.02. 6:50 6 1 - 170° S
So, 05.02. 6:40 4 1 - 180° S
So, 05.02. 6:30 7 2 11 160° S
So, 05.02. 6:00 6 1 9 170° S
So, 05.02. 5:30 7 2 11 170° S
So, 05.02. 5:00 7 2 11 170° S
So, 05.02. 4:30 7 2 11 170° S
Ortszeit Untergrenze Bedeckung Gattung
total tief tief mittel hoch
So, 05.02. 7:00 720 m 8/8 8/8 - - -
So, 05.02. 1:00 - 0/8 0/8 - - -
Sa, 04.02. 19:00 8700 m 8/8 0/8 - - -
Sa, 04.02. 13:00 690 m 8/8 8/8 - - -
Sa, 04.02. 7:00 180 m 7/8 7/8 - - -
Sa, 04.02. 1:00 990 m 8/8 8/8 - - -
Fr, 03.02. 19:00 1200 m 8/8 2/8 - - -
Fr, 03.02. 13:00 300 m 7/8 7/8 - - -
Ortszeit Bedeckungsgrad in Achtel und Wolkenuntergrenze
So, 05.02. 7:30 8(750m)
So, 05.02. 7:20 8(750m)
So, 05.02. 7:10 8
So, 05.02. 7:00 7(720m) 8(2400m)
So, 05.02. 6:50 7(720m) 8(2400m)
So, 05.02. 6:40 8
So, 05.02. 6:30 5(750m) 8(1050m) 8(8100m)
So, 05.02. 6:00 6(1050m) 7(7800m) 8(10500m)
So, 05.02. 5:30 3(8700m) 8(10500m) 8(10500m)
So, 05.02. 5:00 7(10500m) 7(10500m)
So, 05.02. 4:30 5(10500m)
Ortszeit Luftdruck NN (hPa) Tendenz (hPa in 3 Std.)
So, 05.02. 7:00 1039 - 0,3
So, 05.02. 1:00 1041 - 0,1
Sa, 04.02. 19:00 1039 + 0,8
Sa, 04.02. 13:00 1038 + 1,8
Sa, 04.02. 7:00 1034 + 3,1
Sa, 04.02. 1:00 1027 + 1,6
Fr, 03.02. 19:00 1023 + 1,7
Fr, 03.02. 13:00 1021 - 1,1
Ortszeit Luftdruck NN (hPa) Tendenz (hPa in 3 Std.)
So, 05.02. 7:30 1039 - 0,2
So, 05.02. 7:20 1039 keine Meldung
So, 05.02. 7:10 1039 keine Meldung
So, 05.02. 7:00 1039 - 0,3
So, 05.02. 6:50 1039 keine Meldung
So, 05.02. 6:40 1039 keine Meldung
So, 05.02. 6:30 1039 - 0,6
So, 05.02. 6:00 1039 - 0,8
So, 05.02. 5:30 1039 - 1,3
So, 05.02. 5:00 1039 - 1,4
So, 05.02. 4:30 1039 - 1,5
Ortszeit Schneehöhe (cm)
So, 05.02. 7:00 0
So, 05.02. 1:00 0
Sa, 04.02. 19:00 0
Sa, 04.02. 13:00 0
Sa, 04.02. 7:00 0
Sa, 04.02. 1:00 0
Fr, 03.02. 19:00 0
Fr, 03.02. 13:00 0
Ortszeit Schneehöhe (cm)
So, 05.02. 7:30 0
So, 05.02. 7:20 0
So, 05.02. 7:10 0
So, 05.02. 7:00 0
So, 05.02. 6:50 0
So, 05.02. 6:40 0
So, 05.02. 6:30 0
So, 05.02. 6:00 0
So, 05.02. 5:30 0
So, 05.02. 5:00 0
So, 05.02. 4:30 0
Link zu dieser Seite / Seite empfehlen

Das Wetter in ...